sensor_id;sensor_type;location;lat;lon;timestamp;P1;durP1;ratioP1;P2;durP2;ratioP2
60426;SDS011;46274;47.168;27.604;2023-08-24T00:05:36;10.68;;;6.20;;
60426;SDS011;46274;47.168;27.604;2023-08-24T00:11:51;12.98;;;7.43;;
60426;SDS011;46274;47.168;27.604;2023-08-24T00:18:00;13.15;;;8.98;;
60426;SDS011;46274;47.168;27.604;2023-08-24T00:24:03;12.00;;;8.02;;
60426;SDS011;46274;47.168;27.604;2023-08-24T00:30:25;10.45;;;6.70;;
60426;SDS011;46274;47.168;27.604;2023-08-24T00:36:29;12.07;;;7.55;;
60426;SDS011;46274;47.168;27.604;2023-08-24T00:42:45;11.70;;;6.15;;
60426;SDS011;46274;47.168;27.604;2023-08-24T00:48:55;9.45;;;6.18;;
60426;SDS011;46274;47.168;27.604;2023-08-24T00:55:08;9.35;;;5.95;;
60426;SDS011;46274;47.168;27.604;2023-08-24T01:01:11;9.18;;;6.28;;
60426;SDS011;46274;47.168;27.604;2023-08-24T01:07:37;8.63;;;5.10;;
60426;SDS011;46274;47.168;27.604;2023-08-24T01:20:16;12.40;;;7.78;;
60426;SDS011;46274;47.168;27.604;2023-08-24T01:26:21;13.90;;;8.40;;
60426;SDS011;46274;47.168;27.604;2023-08-24T01:38:58;11.68;;;5.82;;
60426;SDS011;46274;47.168;27.604;2023-08-24T01:45:12;8.38;;;5.35;;
60426;SDS011;46274;47.168;27.604;2023-08-24T01:51:20;10.82;;;5.25;;
60426;SDS011;46274;47.168;27.604;2023-08-24T01:57:33;8.27;;;5.32;;
60426;SDS011;46274;47.168;27.604;2023-08-24T02:03:45;11.80;;;5.97;;
60426;SDS011;46274;47.168;27.604;2023-08-24T02:10:04;11.18;;;6.00;;
60426;SDS011;46274;47.168;27.604;2023-08-24T02:16:07;8.95;;;5.45;;
60426;SDS011;46274;47.168;27.604;2023-08-24T02:22:22;10.63;;;5.63;;
60426;SDS011;46274;47.168;27.604;2023-08-24T02:34:34;8.65;;;5.38;;
60426;SDS011;46274;47.168;27.604;2023-08-24T02:40:44;12.68;;;7.28;;
60426;SDS011;46274;47.168;27.604;2023-08-24T02:46:49;13.30;;;5.43;;
60426;SDS011;46274;47.168;27.604;2023-08-24T02:53:10;14.55;;;7.47;;
60426;SDS011;46274;47.168;27.604;2023-08-24T02:59:16;8.93;;;6.68;;
60426;SDS011;46274;47.168;27.604;2023-08-24T03:12:13;11.23;;;5.97;;
60426;SDS011;46274;47.168;27.604;2023-08-24T03:18:16;8.32;;;6.20;;
60426;SDS011;46274;47.168;27.604;2023-08-24T03:24:20;8.73;;;5.63;;
60426;SDS011;46274;47.168;27.604;2023-08-24T03:37:11;16.77;;;9.30;;
60426;SDS011;46274;47.168;27.604;2023-08-24T03:43:33;10.63;;;6.75;;
60426;SDS011;46274;47.168;27.604;2023-08-24T03:49:36;11.00;;;6.28;;
60426;SDS011;46274;47.168;27.604;2023-08-24T03:55:40;9.23;;;5.72;;
60426;SDS011;46274;47.168;27.604;2023-08-24T04:08:09;12.55;;;7.57;;
60426;SDS011;46274;47.168;27.604;2023-08-24T04:14:13;10.88;;;6.53;;
60426;SDS011;46274;47.168;27.604;2023-08-24T04:20:24;13.95;;;8.45;;
60426;SDS011;46274;47.168;27.604;2023-08-24T04:39:19;12.43;;;7.50;;
60426;SDS011;46274;47.168;27.604;2023-08-24T04:51:38;9.77;;;7.10;;
60426;SDS011;46274;47.168;27.604;2023-08-24T04:57:49;11.23;;;7.53;;
60426;SDS011;46274;47.168;27.604;2023-08-24T05:03:52;16.77;;;6.60;;
60426;SDS011;46274;47.168;27.604;2023-08-24T05:23:40;15.13;;;8.07;;
60426;SDS011;46274;47.168;27.604;2023-08-24T05:29:59;13.65;;;8.02;;
60426;SDS011;46274;47.168;27.604;2023-08-24T05:36:17;15.93;;;7.72;;
60426;SDS011;46274;47.168;27.604;2023-08-24T05:42:27;11.00;;;7.13;;
60426;SDS011;46274;47.168;27.604;2023-08-24T05:48:46;12.07;;;7.38;;
60426;SDS011;46274;47.168;27.604;2023-08-24T05:54:49;13.88;;;7.95;;
60426;SDS011;46274;47.168;27.604;2023-08-24T06:08:14;10.57;;;7.07;;
60426;SDS011;46274;47.168;27.604;2023-08-24T06:14:24;9.50;;;7.32;;
60426;SDS011;46274;47.168;27.604;2023-08-24T06:34:31;13.52;;;7.68;;
60426;SDS011;46274;47.168;27.604;2023-08-24T06:40:41;9.60;;;6.90;;
60426;SDS011;46274;47.168;27.604;2023-08-24T06:46:46;15.38;;;6.68;;
60426;SDS011;46274;47.168;27.604;2023-08-24T06:59:59;12.50;;;7.75;;
60426;SDS011;46274;47.168;27.604;2023-08-24T07:19:26;12.90;;;7.03;;
60426;SDS011;46274;47.168;27.604;2023-08-24T07:25:43;17.83;;;8.55;;
60426;SDS011;46274;47.168;27.604;2023-08-24T07:32:05;11.63;;;7.80;;
60426;SDS011;46274;47.168;27.604;2023-08-24T07:38:10;16.52;;;7.82;;
60426;SDS011;46274;47.168;27.604;2023-08-24T07:44:13;10.30;;;6.50;;
60426;SDS011;46274;47.168;27.604;2023-08-24T07:50:36;20.42;;;8.60;;
60426;SDS011;46274;47.168;27.604;2023-08-24T07:56:53;20.67;;;7.43;;
60426;SDS011;46274;47.168;27.604;2023-08-24T08:10:09;13.32;;;6.57;;
60426;SDS011;46274;47.168;27.604;2023-08-24T08:16:12;19.83;;;8.32;;
60426;SDS011;46274;47.168;27.604;2023-08-24T08:22:20;12.07;;;7.20;;
60426;SDS011;46274;47.168;27.604;2023-08-24T08:28:29;16.50;;;7.47;;
60426;SDS011;46274;47.168;27.604;2023-08-24T08:34:39;10.90;;;7.13;;
60426;SDS011;46274;47.168;27.604;2023-08-24T08:40:50;9.65;;;6.15;;
60426;SDS011;46274;47.168;27.604;2023-08-24T08:47:20;8.90;;;6.22;;
60426;SDS011;46274;47.168;27.604;2023-08-24T08:53:45;11.02;;;6.20;;
60426;SDS011;46274;47.168;27.604;2023-08-24T08:59:56;15.23;;;5.90;;
60426;SDS011;46274;47.168;27.604;2023-08-24T09:06:10;13.55;;;6.20;;
60426;SDS011;46274;47.168;27.604;2023-08-24T09:12:15;7.75;;;4.82;;
60426;SDS011;46274;47.168;27.604;2023-08-24T09:18:41;6.95;;;4.68;;
60426;SDS011;46274;47.168;27.604;2023-08-24T09:25:28;13.48;;;6.60;;
60426;SDS011;46274;47.168;27.604;2023-08-24T09:32:01;6.93;;;4.28;;
60426;SDS011;46274;47.168;27.604;2023-08-24T10:06:22;8.73;;;4.45;;
60426;SDS011;46274;47.168;27.604;2023-08-24T10:12:41;8.63;;;5.40;;
60426;SDS011;46274;47.168;27.604;2023-08-24T10:19:51;10.00;;;5.22;;
60426;SDS011;46274;47.168;27.604;2023-08-24T13:18:41;8.07;;;5.60;;
60426;SDS011;46274;47.168;27.604;2023-08-24T13:24:58;8.73;;;4.50;;
60426;SDS011;46274;47.168;27.604;2023-08-24T13:31:05;6.53;;;4.47;;
60426;SDS011;46274;47.168;27.604;2023-08-24T13:37:10;11.38;;;6.28;;
60426;SDS011;46274;47.168;27.604;2023-08-24T13:43:15;17.90;;;6.32;;
60426;SDS011;46274;47.168;27.604;2023-08-24T13:49:29;9.05;;;4.68;;
60426;SDS011;46274;47.168;27.604;2023-08-24T13:56:01;9.35;;;4.90;;
60426;SDS011;46274;47.168;27.604;2023-08-24T14:02:04;10.48;;;5.95;;
60426;SDS011;46274;47.168;27.604;2023-08-24T14:08:29;7.30;;;5.00;;
60426;SDS011;46274;47.168;27.604;2023-08-24T14:15:09;7.25;;;4.07;;
60426;SDS011;46274;47.168;27.604;2023-08-24T14:21:38;5.90;;;4.57;;
60426;SDS011;46274;47.168;27.604;2023-08-24T14:27:48;6.53;;;4.30;;
60426;SDS011;46274;47.168;27.604;2023-08-24T14:34:09;6.85;;;4.70;;
60426;SDS011;46274;47.168;27.604;2023-08-24T14:40:16;9.70;;;5.25;;
60426;SDS011;46274;47.168;27.604;2023-08-24T14:46:35;6.75;;;4.65;;
60426;SDS011;46274;47.168;27.604;2023-08-24T14:52:48;10.75;;;4.43;;
60426;SDS011;46274;47.168;27.604;2023-08-24T15:05:05;6.00;;;4.05;;
60426;SDS011;46274;47.168;27.604;2023-08-24T15:11:24;6.63;;;4.57;;
60426;SDS011;46274;47.168;27.604;2023-08-24T15:17:31;9.50;;;4.05;;
60426;SDS011;46274;47.168;27.604;2023-08-24T15:23:34;9.85;;;4.50;;
60426;SDS011;46274;47.168;27.604;2023-08-24T15:29:41;12.48;;;5.15;;
60426;SDS011;46274;47.168;27.604;2023-08-24T15:41:57;7.18;;;4.43;;
60426;SDS011;46274;47.168;27.604;2023-08-24T15:48:01;9.25;;;4.55;;
60426;SDS011;46274;47.168;27.604;2023-08-24T15:54:08;10.93;;;5.13;;
60426;SDS011;46274;47.168;27.604;2023-08-24T16:00:11;6.18;;;4.03;;
60426;SDS011;46274;47.168;27.604;2023-08-24T16:06:22;6.05;;;4.00;;
60426;SDS011;46274;47.168;27.604;2023-08-24T16:12:31;6.28;;;3.80;;
60426;SDS011;46274;47.168;27.604;2023-08-24T16:18:37;7.55;;;4.40;;
60426;SDS011;46274;47.168;27.604;2023-08-24T16:24:40;12.73;;;4.78;;
60426;SDS011;46274;47.168;27.604;2023-08-24T16:30:46;9.60;;;5.10;;
60426;SDS011;46274;47.168;27.604;2023-08-24T16:36:55;8.00;;;4.88;;
60426;SDS011;46274;47.168;27.604;2023-08-24T16:42:57;14.90;;;5.50;;
60426;SDS011;46274;47.168;27.604;2023-08-24T16:49:04;7.22;;;4.55;;
60426;SDS011;46274;47.168;27.604;2023-08-24T16:55:07;10.90;;;5.45;;
60426;SDS011;46274;47.168;27.604;2023-08-24T17:01:11;11.07;;;6.40;;
60426;SDS011;46274;47.168;27.604;2023-08-24T17:07:21;13.35;;;6.75;;
60426;SDS011;46274;47.168;27.604;2023-08-24T17:13:28;13.88;;;6.88;;
60426;SDS011;46274;47.168;27.604;2023-08-24T17:19:31;16.15;;;8.75;;
60426;SDS011;46274;47.168;27.604;2023-08-24T17:25:37;12.65;;;6.88;;
60426;SDS011;46274;47.168;27.604;2023-08-24T17:31:46;21.67;;;8.48;;
60426;SDS011;46274;47.168;27.604;2023-08-24T17:37:53;9.00;;;6.07;;
60426;SDS011;46274;47.168;27.604;2023-08-24T17:44:07;11.10;;;6.07;;
60426;SDS011;46274;47.168;27.604;2023-08-24T17:56:38;11.05;;;6.07;;
60426;SDS011;46274;47.168;27.604;2023-08-24T18:02:50;11.55;;;5.63;;
60426;SDS011;46274;47.168;27.604;2023-08-24T18:22:49;8.88;;;5.43;;
60426;SDS011;46274;47.168;27.604;2023-08-24T18:28:53;11.68;;;4.22;;
60426;SDS011;46274;47.168;27.604;2023-08-24T18:34:56;6.70;;;4.22;;
60426;SDS011;46274;47.168;27.604;2023-08-24T18:41:05;13.25;;;5.70;;
60426;SDS011;46274;47.168;27.604;2023-08-24T18:47:09;21.67;;;5.45;;
60426;SDS011;46274;47.168;27.604;2023-08-24T18:53:17;14.80;;;4.97;;
60426;SDS011;46274;47.168;27.604;2023-08-24T19:07:07;6.00;;;4.00;;
60426;SDS011;46274;47.168;27.604;2023-08-24T19:13:15;8.48;;;4.38;;
60426;SDS011;46274;47.168;27.604;2023-08-24T19:25:45;11.45;;;5.55;;
60426;SDS011;46274;47.168;27.604;2023-08-24T19:32:05;7.80;;;4.45;;
60426;SDS011;46274;47.168;27.604;2023-08-24T19:38:28;10.50;;;4.65;;
60426;SDS011;46274;47.168;27.604;2023-08-24T19:44:37;7.25;;;4.07;;
60426;SDS011;46274;47.168;27.604;2023-08-24T19:50:41;7.57;;;4.20;;
60426;SDS011;46274;47.168;27.604;2023-08-24T20:03:07;9.70;;;4.50;;
60426;SDS011;46274;47.168;27.604;2023-08-24T20:09:20;10.60;;;4.20;;
60426;SDS011;46274;47.168;27.604;2023-08-24T20:15:41;9.70;;;4.30;;
60426;SDS011;46274;47.168;27.604;2023-08-24T20:22:08;7.85;;;5.10;;
60426;SDS011;46274;47.168;27.604;2023-08-24T20:28:40;7.47;;;4.20;;
60426;SDS011;46274;47.168;27.604;2023-08-24T20:34:46;12.20;;;5.32;;
60426;SDS011;46274;47.168;27.604;2023-08-24T20:41:04;8.02;;;4.30;;
60426;SDS011;46274;47.168;27.604;2023-08-24T20:47:23;12.73;;;4.85;;
60426;SDS011;46274;47.168;27.604;2023-08-24T20:59:53;11.25;;;5.78;;
60426;SDS011;46274;47.168;27.604;2023-08-24T21:06:00;10.43;;;5.45;;
60426;SDS011;46274;47.168;27.604;2023-08-24T21:12:10;9.25;;;5.50;;
60426;SDS011;46274;47.168;27.604;2023-08-24T21:18:16;8.20;;;4.63;;
60426;SDS011;46274;47.168;27.604;2023-08-24T21:24:24;9.07;;;5.35;;
60426;SDS011;46274;47.168;27.604;2023-08-24T21:30:41;12.15;;;5.03;;
60426;SDS011;46274;47.168;27.604;2023-08-24T21:36:51;12.18;;;5.13;;
60426;SDS011;46274;47.168;27.604;2023-08-24T21:43:05;11.45;;;6.15;;
60426;SDS011;46274;47.168;27.604;2023-08-24T21:49:10;8.43;;;5.50;;
60426;SDS011;46274;47.168;27.604;2023-08-24T21:55:35;8.18;;;4.88;;
60426;SDS011;46274;47.168;27.604;2023-08-24T22:01:53;8.93;;;5.78;;
60426;SDS011;46274;47.168;27.604;2023-08-24T22:07:56;10.77;;;5.80;;
60426;SDS011;46274;47.168;27.604;2023-08-24T22:13:58;9.30;;;5.85;;
60426;SDS011;46274;47.168;27.604;2023-08-24T22:26:13;12.85;;;5.90;;
60426;SDS011;46274;47.168;27.604;2023-08-24T22:32:29;8.48;;;5.25;;
60426;SDS011;46274;47.168;27.604;2023-08-24T22:38:44;9.35;;;5.20;;
60426;SDS011;46274;47.168;27.604;2023-08-24T22:44:48;13.18;;;6.22;;
60426;SDS011;46274;47.168;27.604;2023-08-24T22:50:55;10.75;;;6.38;;
60426;SDS011;46274;47.168;27.604;2023-08-24T22:56:59;16.92;;;7.38;;
60426;SDS011;46274;47.168;27.604;2023-08-24T23:03:03;13.55;;;6.07;;
60426;SDS011;46274;47.168;27.604;2023-08-24T23:15:16;8.02;;;5.72;;
60426;SDS011;46274;47.168;27.604;2023-08-24T23:21:32;10.00;;;5.60;;
60426;SDS011;46274;47.168;27.604;2023-08-24T23:40:23;8.90;;;5.75;;
60426;SDS011;46274;47.168;27.604;2023-08-24T23:46:32;11.07;;;5.90;;
60426;SDS011;46274;47.168;27.604;2023-08-24T23:52:44;12.52;;;6.05;;
60426;SDS011;46274;47.168;27.604;2023-08-24T23:59:06;11.70;;;6.22;;
